Time,TemperatureF,DewpointF,PressureIn,WindDirection,WindDirectionDegrees,WindSpeedMPH,WindSpeedGustMPH,Humidity,HourlyPrecipIn,Conditions,Clouds,dailyrainin,SoftwareType,DateUTC
2013-02-21 00:01:00,15.0,13.0,-100.00,North,349,1.0,3.0,94,0.00,,,-99.99,,2013-02-21 07:01:00,
2013-02-21 00:11:00,13.0,12.0,-100.00,North,10,1.0,2.0,94,0.00,,,-99.99,,2013-02-21 07:11:00,
2013-02-21 00:21:00,13.0,11.0,-100.00,NW,312,0.0,0.0,95,0.00,,,-99.99,,2013-02-21 07:21:00,
2013-02-21 00:31:00,13.0,11.0,-100.00,NW,312,0.0,0.0,95,0.00,,,-99.99,,2013-02-21 07:31:00,
2013-02-21 00:41:00,12.0,11.0,-100.00,NW,311,1.0,2.0,95,0.00,,,-99.99,,2013-02-21 07:41:00,
2013-02-21 00:52:00,11.0,10.0,-100.00,NW,304,1.0,2.0,95,0.00,,,-99.99,,2013-02-21 07:52:00,
2013-02-21 01:01:00,11.0,10.0,-100.00,NW,304,1.0,2.0,95,0.00,,,-99.99,,2013-02-21 08:01:00,
2013-02-21 01:11:00,11.0,10.0,-100.00,SW,229,1.0,3.0,96,0.00,,,-99.99,,2013-02-21 08:11:00,
2013-02-21 01:21:00,13.0,12.0,-100.00,NW,305,2.0,4.0,97,0.00,,,-99.99,,2013-02-21 08:21:00,
2013-02-21 01:31:00,13.0,12.0,-100.00,NW,305,2.0,4.0,97,0.00,,,-99.99,,2013-02-21 08:31:00,
2013-02-21 01:41:00,14.0,13.0,-100.00,West,280,4.0,6.0,95,0.00,,,-99.99,,2013-02-21 08:41:00,
2013-02-21 01:52:00,14.0,13.0,-100.00,NW,316,2.0,4.0,95,0.00,,,-99.99,,2013-02-21 08:52:00,
2013-02-21 02:01:00,14.0,13.0,-100.00,NW,316,2.0,4.0,95,0.00,,,-99.99,,2013-02-21 09:01:00,
2013-02-21 02:11:00,14.0,13.0,-100.00,NW,316,2.0,4.0,95,0.00,,,-99.99,,2013-02-21 09:11:00,
2013-02-21 05:21:00,7.0,7.0,-100.00,ESE,106,2.0,2.0,96,0.00,,,-99.99,,2013-02-21 12:21:00,
2013-02-21 05:32:00,7.0,7.0,-100.00,ESE,106,2.0,2.0,96,0.00,,,-99.99,,2013-02-21 12:32:00,
2013-02-21 05:42:00,8.0,6.0,-100.00,SSE,165,0.0,1.0,93,0.00,,,-99.99,,2013-02-21 12:42:00,
2013-02-21 05:52:00,9.0,8.0,-100.00,SE,138,1.0,2.0,95,0.00,,,-99.99,,2013-02-21 12:52:00,
2013-02-21 06:01:00,9.0,8.0,-100.00,SE,138,1.0,2.0,95,0.00,,,-99.99,,2013-02-21 13:01:00,
2013-02-21 06:12:00,7.0,5.0,-100.00,SSW,203,1.0,2.0,91,0.00,,,-99.99,,2013-02-21 13:12:00,
2013-02-21 06:22:00,5.0,4.0,-100.00,SW,215,0.0,2.0,93,0.00,,,-99.99,,2013-02-21 13:22:00,
2013-02-21 06:31:00,5.0,4.0,-100.00,SW,215,0.0,2.0,93,0.00,,,-99.99,,2013-02-21 13:31:00,
2013-02-21 06:41:00,7.0,6.0,-100.00,South,178,1.0,2.0,93,0.00,,,-99.99,,2013-02-21 13:41:00,
2013-02-21 06:52:00,7.0,6.0,-100.00,South,178,1.0,2.0,93,0.00,,,-99.99,,2013-02-21 13:52:00,
2013-02-21 07:02:00,7.0,6.0,-100.00,South,178,1.0,2.0,93,0.00,,,-99.99,,2013-02-21 14:02:00,
2013-02-21 07:11:00,7.0,5.0,-100.00,South,175,1.0,2.0,92,0.00,,,-99.99,,2013-02-21 14:11:00,
2013-02-21 07:21:00,8.0,6.0,-100.00,SSE,161,2.0,3.0,93,0.00,,,-99.99,,2013-02-21 14:21:00,
2013-02-21 07:31:00,8.0,6.0,-100.00,SSE,161,2.0,3.0,93,0.00,,,-99.99,,2013-02-21 14:31:00,
2013-02-21 07:41:00,9.0,8.0,-100.00,SE,140,2.0,4.0,94,0.00,,,-99.99,,2013-02-21 14:41:00,
2013-02-21 07:52:00,9.0,7.0,-100.00,SE,130,2.0,3.0,92,0.00,,,-99.99,,2013-02-21 14:52:00,
2013-02-21 08:01:00,9.0,7.0,-100.00,SE,130,2.0,3.0,92,0.00,,,-99.99,,2013-02-21 15:01:00,
2013-02-21 08:12:00,9.0,7.0,-100.00,SE,130,2.0,3.0,92,0.00,,,-99.99,,2013-02-21 15:12:00,
2013-02-21 08:21:00,8.0,5.0,-100.00,SE,124,3.0,5.0,90,0.00,,,-99.99,,2013-02-21 15:21:00,
2013-02-21 08:31:00,8.0,5.0,-100.00,SE,124,3.0,5.0,90,0.00,,,-99.99,,2013-02-21 15:31:00,
2013-02-21 08:42:00,10.0,8.0,-100.00,ESE,116,3.0,5.0,92,0.00,,,-99.99,,2013-02-21 15:42:00,
2013-02-21 08:52:00,11.0,9.0,-100.00,SSW,208,4.0,7.0,92,0.00,,,-99.99,,2013-02-21 15:52:00,
2013-02-21 09:01:00,11.0,9.0,-100.00,SSW,208,4.0,7.0,92,0.00,,,-99.99,,2013-02-21 16:01:00,
2013-02-21 09:12:00,12.0,10.0,-100.00,SSW,208,4.0,6.0,91,0.00,,,-99.99,,2013-02-21 16:12:00,
2013-02-21 09:21:00,14.0,11.0,-100.00,SW,234,5.0,11.0,90,0.00,,,-99.99,,2013-02-21 16:21:00,
2013-02-21 09:31:00,14.0,11.0,-100.00,SW,234,5.0,11.0,90,0.00,,,-99.99,,2013-02-21 16:31:00,
2013-02-21 09:42:00,15.0,12.0,-100.00,SW,215,5.0,12.0,85,0.04,,,-99.99,,2013-02-21 16:42:00,
2013-02-21 09:52:00,19.0,13.0,-100.00,WSW,257,4.0,6.0,79,0.00,,,-99.99,,2013-02-21 16:52:00,
2013-02-21 10:01:00,19.0,13.0,-100.00,WSW,257,4.0,6.0,79,0.00,,,-99.99,,2013-02-21 17:01:00,
2013-02-21 10:21:00,16.0,12.0,-100.00,SSW,206,2.0,4.0,82,0.00,,,-99.99,,2013-02-21 17:21:00,
2013-02-21 10:32:00,16.0,12.0,-100.00,SSW,206,2.0,4.0,82,0.00,,,-99.99,,2013-02-21 17:32:00,
2013-02-21 10:42:00,15.0,11.0,-100.00,SSE,161,7.0,10.0,82,0.00,,,-99.99,,2013-02-21 17:42:00,
2013-02-21 10:52:00,19.0,14.0,-100.00,WSW,243,2.0,5.0,80,0.00,,,-99.99,,2013-02-21 17:52:00,
2013-02-21 11:01:00,19.0,14.0,-100.00,WSW,243,2.0,5.0,80,0.00,,,-99.99,,2013-02-21 18:01:00,
2013-02-21 11:11:00,19.0,12.0,-100.00,WSW,244,4.0,9.0,74,0.00,,,-99.99,,2013-02-21 18:11:00,
2013-02-21 11:22:00,20.0,12.0,-100.00,WSW,254,4.0,7.0,71,0.00,,,-99.99,,2013-02-21 18:22:00,
2013-02-21 11:31:00,20.0,12.0,-100.00,WSW,254,4.0,7.0,71,0.00,,,-99.99,,2013-02-21 18:31:00,
2013-02-21 11:42:00,16.0,10.0,-100.00,SSE,150,5.0,8.0,78,0.00,,,-99.99,,2013-02-21 18:42:00,
2013-02-21 11:52:00,17.0,10.0,-100.00,South,172,4.0,6.0,74,0.00,,,-99.99,,2013-02-21 18:52:00,
2013-02-21 12:01:00,17.0,10.0,-100.00,South,172,4.0,6.0,74,0.00,,,-99.99,,2013-02-21 19:01:00,
2013-02-21 12:11:00,20.0,11.0,-100.00,SW,233,4.0,6.0,69,0.00,,,-99.99,,2013-02-21 19:11:00,
2013-02-21 12:21:00,18.0,10.0,-100.00,SSW,199,4.0,9.0,70,0.00,,,-99.99,,2013-02-21 19:21:00,
2013-02-21 12:31:00,18.0,10.0,-100.00,SSW,199,4.0,9.0,70,0.00,,,-99.99,,2013-02-21 19:31:00,
2013-02-21 12:41:00,21.0,12.0,-100.00,South,189,5.0,9.0,67,0.00,,,-99.99,,2013-02-21 19:41:00,
2013-02-21 12:52:00,22.0,11.0,-100.00,SSE,165,2.0,4.0,64,0.00,,,-99.99,,2013-02-21 19:52:00,
2013-02-21 13:01:00,22.0,11.0,-100.00,SSE,165,2.0,4.0,64,0.00,,,-99.99,,2013-02-21 20:01:00,
2013-02-21 13:11:00,21.0,11.0,-100.00,SE,144,6.0,11.0,66,0.00,,,-99.99,,2013-02-21 20:11:00,
2013-02-21 13:21:00,22.0,11.0,-100.00,South,171,5.0,7.0,62,0.00,,,-99.99,,2013-02-21 20:21:00,
2013-02-21 13:31:00,22.0,11.0,-100.00,South,171,5.0,7.0,62,0.00,,,-99.99,,2013-02-21 20:31:00,
2013-02-21 13:41:00,22.0,11.0,-100.00,South,169,4.0,6.0,62,0.00,,,-99.99,,2013-02-21 20:41:00,
2013-02-21 13:52:00,22.0,11.0,-100.00,South,169,4.0,6.0,62,0.00,,,-99.99,,2013-02-21 20:52:00,
2013-02-21 14:02:00,22.0,11.0,-100.00,South,169,4.0,6.0,62,0.00,,,-99.99,,2013-02-21 21:02:00,
2013-02-21 14:11:00,21.0,11.0,-100.00,SSE,157,4.0,9.0,65,0.00,,,-99.99,,2013-02-21 21:11:00,
2013-02-21 14:21:00,22.0,13.0,-100.00,SSE,162,4.0,9.0,67,0.00,,,-99.99,,2013-02-21 21:21:00,
2013-02-21 14:31:00,22.0,13.0,-100.00,SSE,162,4.0,9.0,67,0.00,,,-99.99,,2013-02-21 21:31:00,
2013-02-21 14:42:00,26.0,12.0,-100.00,West,264,3.0,6.0,54,0.00,,,-99.99,,2013-02-21 21:42:00,
2013-02-21 14:52:00,23.0,11.0,-100.00,South,178,4.0,7.0,59,0.00,,,-99.99,,2013-02-21 21:52:00,
2013-02-21 15:01:00,23.0,11.0,-100.00,South,178,4.0,7.0,59,0.00,,,-99.99,,2013-02-21 22:01:00,
2013-02-21 15:11:00,23.0,11.0,-100.00,NW,325,4.0,7.0,59,0.00,,,-99.99,,2013-02-21 22:11:00,
2013-02-21 15:21:00,23.0,11.0,-100.00,NW,325,4.0,7.0,59,0.00,,,-99.99,,2013-02-21 22:21:00,
2013-02-21 15:31:00,23.0,11.0,-100.00,NW,325,4.0,7.0,59,0.00,,,-99.99,,2013-02-21 22:31:00,
2013-02-21 15:41:00,23.0,12.0,-100.00,NNW,333,9.0,16.0,64,0.00,,,-99.99,,2013-02-21 22:41:00,
2013-02-21 15:52:00,22.0,14.0,-100.00,West,275,4.0,5.0,69,0.00,,,-99.99,,2013-02-21 22:52:00,
2013-02-21 16:01:00,22.0,14.0,-100.00,West,275,4.0,5.0,69,0.00,,,-99.99,,2013-02-21 23:01:00,
2013-02-21 16:11:00,23.0,12.0,-100.00,WNW,287,3.0,5.0,62,0.00,,,-99.99,,2013-02-21 23:11:00,
2013-02-21 16:21:00,23.0,14.0,-100.00,NNW,332,5.0,7.0,68,0.00,,,-99.99,,2013-02-21 23:21:00,
2013-02-21 16:31:00,23.0,14.0,-100.00,NNW,332,5.0,7.0,68,0.00,,,-99.99,,2013-02-21 23:31:00,
2013-02-21 16:41:00,23.0,11.0,-100.00,SW,224,3.0,6.0,61,0.00,,,-99.99,,2013-02-21 23:41:00,
2013-02-21 16:52:00,22.0,12.0,-100.00,West,274,3.0,9.0,66,0.00,,,-99.99,,2013-02-21 23:52:00,
2013-02-21 17:01:00,22.0,12.0,-100.00,West,274,3.0,9.0,66,0.00,,,-99.99,,2013-02-22 00:01:00,
2013-02-21 17:11:00,21.0,12.0,-100.00,SE,141,6.0,11.0,68,0.00,,,-99.99,,2013-02-22 00:11:00,
2013-02-21 17:21:00,21.0,13.0,-100.00,WNW,302,1.0,3.0,71,0.00,,,-99.99,,2013-02-22 00:21:00,
2013-02-21 17:31:00,21.0,13.0,-100.00,WNW,302,1.0,3.0,71,0.00,,,-99.99,,2013-02-22 00:31:00,
2013-02-21 17:41:00,21.0,12.0,-100.00,SE,128,1.0,2.0,67,0.00,,,-99.99,,2013-02-22 00:41:00,
2013-02-21 17:52:00,21.0,13.0,-100.00,SW,230,3.0,5.0,73,0.00,,,-99.99,,2013-02-22 00:52:00,
2013-02-21 18:01:00,21.0,13.0,-100.00,SW,230,3.0,5.0,73,0.00,,,-99.99,,2013-02-22 01:01:00,
2013-02-21 18:11:00,20.0,14.0,-100.00,South,182,2.0,3.0,79,0.00,,,-99.99,,2013-02-22 01:11:00,
2013-02-21 18:21:00,19.0,16.0,-100.00,SE,130,3.0,6.0,87,0.00,,,-99.99,,2013-02-22 01:21:00,
2013-02-21 18:32:00,19.0,16.0,-100.00,SE,130,3.0,6.0,87,0.00,,,-99.99,,2013-02-22 01:32:00,
2013-02-21 18:42:00,18.0,17.0,-100.00,SE,131,4.0,5.0,93,0.00,,,-99.99,,2013-02-22 01:42:00,
2013-02-21 18:52:00,18.0,17.0,-100.00,SE,128,5.0,6.0,97,0.00,,,-99.99,,2013-02-22 01:52:00,
2013-02-21 19:00:00,18.0,17.0,-100.00,ESE,117,3.0,5.0,99,0.04,,,-99.99,,2013-02-22 02:00:00,
2013-02-21 19:02:00,18.0,17.0,-100.00,SE,128,5.0,6.0,97,0.00,,,-99.99,,2013-02-22 02:02:00,
2013-02-21 19:11:00,18.0,17.0,-100.00,ESE,123,4.0,6.0,98,0.00,,,-99.99,,2013-02-22 02:11:00,
2013-02-21 19:21:00,18.0,18.0,-100.00,SE,126,4.0,5.0,98,0.00,,,-99.99,,2013-02-22 02:21:00,
2013-02-21 19:31:00,18.0,17.0,-100.00,ESE,117,3.0,5.0,99,0.04,,,-99.99,,2013-02-22 02:31:00,
2013-02-21 19:42:00,18.0,17.0,-100.00,ESE,117,3.0,5.0,99,0.04,,,-99.99,,2013-02-22 02:42:00,
2013-02-21 19:52:00,18.0,17.0,-100.00,ESE,117,3.0,5.0,99,0.04,,,-99.99,,2013-02-22 02:52:00,
2013-02-21 20:11:00,18.0,17.0,-100.00,SE,143,3.0,5.0,99,0.04,,,-99.99,,2013-02-22 03:11:00,
2013-02-21 20:21:00,18.0,17.0,-100.00,SE,131,4.0,6.0,99,0.04,,,-99.99,,2013-02-22 03:21:00,
2013-02-21 20:31:00,18.0,17.0,-100.00,SE,131,4.0,6.0,99,0.04,,,-99.99,,2013-02-22 03:31:00,
2013-02-21 20:41:00,18.0,17.0,-100.00,SE,133,2.0,4.0,99,0.12,,,-99.99,,2013-02-22 03:41:00,
2013-02-21 20:52:00,18.0,17.0,-100.00,SSE,148,2.0,3.0,98,0.08,,,-99.99,,2013-02-22 03:52:00,
2013-02-21 21:01:00,18.0,17.0,-100.00,SSE,148,2.0,3.0,98,0.08,,,-99.99,,2013-02-22 04:01:00,
2013-02-21 21:11:00,18.0,17.0,-100.00,SE,141,2.0,5.0,99,0.04,,,-99.99,,2013-02-22 04:11:00,
2013-02-21 21:21:00,18.0,17.0,-100.00,SE,124,4.0,5.0,98,0.04,,,-99.99,,2013-02-22 04:21:00,
2013-02-21 21:32:00,18.0,17.0,-100.00,SE,124,4.0,5.0,98,0.04,,,-99.99,,2013-02-22 04:32:00,
2013-02-21 21:42:00,18.0,17.0,-100.00,SE,138,3.0,4.0,98,0.04,,,-99.99,,2013-02-22 04:42:00,
2013-02-21 21:52:00,17.0,17.0,-100.00,SE,134,3.0,5.0,98,0.08,,,-99.99,,2013-02-22 04:52:00,
2013-02-21 22:01:00,17.0,17.0,-100.00,SE,134,3.0,5.0,98,0.08,,,-99.99,,2013-02-22 05:01:00,
2013-02-21 22:11:00,17.0,17.0,-100.00,SE,133,6.0,7.0,98,0.04,,,-99.99,,2013-02-22 05:11:00,
2013-02-21 22:22:00,17.0,17.0,-100.00,South,175,2.0,3.0,98,0.00,,,-99.99,,2013-02-22 05:22:00,
2013-02-21 22:32:00,17.0,17.0,-100.00,South,175,2.0,3.0,98,0.00,,,-99.99,,2013-02-22 05:32:00,
2013-02-21 22:41:00,17.0,16.0,-100.00,SSE,161,2.0,5.0,98,0.04,,,-99.99,,2013-02-22 05:41:00,
2013-02-21 22:52:00,17.0,16.0,-100.00,SSE,164,2.0,4.0,98,0.00,,,-99.99,,2013-02-22 05:52:00,
2013-02-21 23:01:00,17.0,16.0,-100.00,SSE,164,2.0,4.0,98,0.00,,,-99.99,,2013-02-22 06:01:00,
2013-02-21 23:11:00,16.0,15.0,-100.00,SSE,165,2.0,6.0,97,0.00,,,-99.99,,2013-02-22 06:11:00,
2013-02-21 23:21:00,16.0,15.0,-100.00,SSE,165,3.0,4.0,97,0.00,,,-99.99,,2013-02-22 06:21:00,
2013-02-21 23:31:00,16.0,15.0,-100.00,SSE,165,3.0,4.0,97,0.00,,,-99.99,,2013-02-22 06:31:00,
2013-02-21 23:42:00,16.0,15.0,-100.00,SSE,165,3.0,4.0,98,0.00,,,-99.99,,2013-02-22 06:42:00,
2013-02-21 23:52:00,16.0,16.0,-100.00,East,88,2.0,5.0,98,0.00,,,-99.99,,2013-02-22 06:52:00,